createdAt,value
2022-11-05T00:00:42.706Z,68.08
2022-11-05T00:04:08.961Z,69.23
2022-11-05T00:07:34.390Z,69.57
2022-11-05T00:10:40.218Z,71.86
2022-11-05T00:14:12.897Z,71.91
2022-11-05T00:17:18.475Z,71.72
2022-11-05T00:20:26.183Z,71.94
2022-11-05T00:23:49.451Z,73.57
2022-11-05T00:26:55.294Z,73.93
2022-11-05T00:30:00.940Z,72.98
2022-11-05T00:33:06.758Z,73.16
2022-11-05T00:36:12.607Z,72.79
2022-11-05T00:39:18.607Z,71.54
2022-11-05T00:42:42.022Z,72.69
2022-11-05T00:45:47.412Z,73.38
2022-11-05T00:49:10.721Z,72.20
2022-11-05T00:52:36.767Z,71.18
2022-11-05T00:55:43.027Z,72.27
2022-11-05T00:58:48.984Z,73.90
2022-11-05T01:01:55.414Z,73.99
2022-11-05T01:05:01.057Z,73.47
2022-11-05T01:08:06.748Z,72.92
2022-11-05T01:11:13.267Z,74.08
2022-11-05T01:14:18.945Z,73.86
2022-11-05T01:17:24.439Z,73.91
2022-11-05T01:20:29.910Z,72.94
2022-11-05T01:23:35.300Z,72.75
2022-11-05T01:26:40.751Z,73.08
2022-11-05T01:29:46.182Z,74.01
2022-11-05T01:32:51.482Z,72.78
2022-11-05T01:35:57.009Z,72.96
2022-11-05T01:39:03.635Z,73.25
2022-11-05T01:42:15.121Z,72.11
2022-11-05T01:45:22.186Z,72.54
2022-11-05T01:48:30.940Z,74.15
2022-11-05T01:51:36.396Z,74.66
2022-11-05T01:54:42.018Z,74.80
2022-11-05T01:57:47.595Z,74.33
2022-11-05T02:00:53.678Z,74.26
2022-11-05T02:04:01.062Z,73.38
2022-11-05T02:07:10.573Z,73.28
2022-11-05T02:10:18.181Z,72.45
2022-11-05T02:13:23.615Z,73.88
2022-11-05T02:16:37.175Z,75.08
2022-11-05T02:20:05.111Z,75.02
2022-11-05T02:23:24.152Z,74.58
2022-11-05T02:26:46.262Z,74.42
2022-11-05T02:30:01.370Z,74.49
2022-11-05T02:33:17.915Z,74.66
2022-11-05T02:36:29.778Z,74.04
2022-11-05T02:39:40.302Z,75.35
2022-11-05T02:42:55.973Z,75.61
2022-11-05T02:46:04.740Z,74.58
2022-11-05T02:49:15.731Z,75.27
2022-11-05T02:52:24.709Z,75.68
2022-11-05T02:55:34.011Z,75.20
2022-11-05T02:58:39.512Z,73.06
2022-11-05T03:01:47.073Z,72.68
2022-11-05T03:04:52.652Z,72.41
2022-11-05T03:08:04.054Z,73.43
2022-11-05T03:11:14.433Z,73.50
2022-11-05T03:14:24.359Z,72.61
2022-11-05T03:17:35.186Z,71.33
2022-11-05T03:20:45.473Z,70.75
2022-11-05T03:23:56.181Z,69.40
2022-11-05T03:27:03.914Z,70.14
2022-11-05T03:30:11.986Z,71.10
2022-11-05T03:33:21.816Z,73.31
2022-11-05T03:36:30.736Z,73.29
2022-11-05T03:39:40.018Z,73.76
2022-11-05T03:42:49.005Z,73.45
2022-11-05T03:45:57.477Z,75.07
2022-11-05T03:49:04.408Z,75.53
2022-11-05T03:52:12.606Z,77.72
2022-11-05T03:55:18.267Z,77.39
2022-11-05T03:58:24.935Z,76.96
2022-11-05T04:01:33.067Z,75.62
2022-11-05T04:04:38.825Z,75.52
2022-11-05T04:08:03.065Z,76.33
2022-11-05T04:11:29.856Z,76.55
2022-11-05T04:14:44.315Z,77.68
2022-11-05T04:17:50.940Z,77.35
2022-11-05T04:21:14.101Z,79.45
2022-11-05T04:24:19.758Z,80.09
2022-11-05T04:27:25.327Z,79.59
2022-11-05T04:30:30.843Z,79.76
2022-11-05T04:33:36.178Z,80.74
2022-11-05T04:36:41.575Z,80.23
2022-11-05T04:39:47.090Z,79.40
2022-11-05T04:42:54.324Z,79.77
2022-11-05T04:45:59.709Z,78.65
2022-11-05T04:49:05.055Z,78.80
2022-11-05T04:52:10.492Z,78.55
2022-11-05T04:55:16.604Z,77.78
2022-11-05T04:58:22.167Z,79.86
2022-11-05T05:01:27.748Z,79.63
2022-11-05T05:04:37.050Z,80.93
2022-11-05T05:07:42.905Z,81.68
2022-11-05T05:10:48.603Z,80.37
2022-11-05T05:13:58.894Z,79.93
2022-11-05T05:17:07.207Z,79.63
2022-11-05T05:20:30.472Z,79.83
2022-11-05T05:23:37.118Z,80.10
2022-11-05T05:26:44.006Z,79.18
2022-11-05T05:29:49.616Z,77.67
2022-11-05T05:32:55.029Z,77.85
2022-11-05T05:36:04.699Z,77.78
2022-11-05T05:39:14.236Z,76.20
2022-11-05T05:42:21.480Z,76.25
2022-11-05T05:45:27.431Z,76.54
2022-11-05T05:48:33.271Z,77.03
2022-11-05T05:51:41.848Z,77.75
2022-11-05T05:54:47.234Z,77.82
2022-11-05T05:57:53.893Z,77.42
2022-11-05T06:01:04.471Z,76.89
2022-11-05T06:04:12.840Z,76.45
2022-11-05T06:07:18.309Z,75.51
2022-11-05T06:10:24.014Z,74.36
2022-11-05T06:13:30.114Z,75.25
2022-11-05T06:16:39.143Z,76.52
2022-11-05T06:19:45.417Z,74.50
2022-11-05T06:22:57.511Z,74.27
2022-11-05T06:26:03.304Z,76.72
2022-11-05T06:29:08.803Z,76.14
2022-11-05T06:32:15.925Z,75.85
2022-11-05T06:35:21.524Z,75.25
2022-11-05T06:38:26.919Z,75.23
2022-11-05T06:41:45.654Z,74.67
2022-11-05T06:44:57.850Z,74.83
2022-11-05T06:48:03.155Z,74.54
2022-11-05T06:51:08.975Z,75.76
2022-11-05T06:54:17.455Z,76.99
2022-11-05T06:57:22.928Z,76.35
2022-11-05T07:00:28.967Z,75.37
2022-11-05T07:03:34.669Z,76.44
2022-11-05T07:06:40.246Z,77.18
2022-11-05T07:09:48.159Z,78.33
2022-11-05T07:12:54.844Z,77.68
2022-11-05T07:16:03.473Z,78.20
2022-11-05T07:19:10.678Z,77.50
2022-11-05T07:22:20.942Z,77.35
2022-11-05T07:25:26.949Z,75.99
2022-11-05T07:28:32.447Z,75.63
2022-11-05T07:31:37.888Z,73.59
2022-11-05T07:34:43.246Z,74.05
2022-11-05T07:37:49.524Z,74.22
2022-11-05T07:40:55.158Z,75.13
2022-11-05T07:44:01.483Z,76.60
2022-11-05T07:47:07.109Z,77.58
2022-11-05T07:50:14.351Z,76.88
2022-11-05T07:53:20.998Z,75.45
2022-11-05T07:56:26.473Z,74.78
2022-11-05T07:59:32.056Z,75.06
2022-11-05T08:02:37.861Z,73.91
2022-11-05T08:05:44.828Z,74.09
2022-11-05T08:08:50.292Z,75.46
2022-11-05T08:12:02.600Z,76.50
2022-11-05T08:15:10.486Z,75.03
2022-11-05T08:18:18.344Z,74.88
2022-11-05T08:21:23.848Z,75.74
2022-11-05T08:24:29.353Z,76.02
2022-11-05T08:27:34.893Z,74.42
2022-11-05T08:30:40.607Z,73.56
2022-11-05T08:33:46.082Z,72.74
2022-11-05T08:36:51.644Z,72.05
2022-11-05T08:39:57.047Z,70.56
2022-11-05T08:43:03.329Z,71.47
2022-11-05T08:46:08.669Z,71.13
2022-11-05T08:49:14.657Z,71.65
2022-11-05T08:52:20.207Z,72.52
2022-11-05T08:55:28.671Z,72.75
2022-11-05T08:58:34.142Z,71.95
2022-11-05T09:01:39.759Z,73.03
2022-11-05T09:04:47.790Z,73.08
2022-11-05T09:07:59.428Z,72.50
2022-11-05T09:11:06.963Z,72.70
2022-11-05T09:14:12.623Z,72.12
2022-11-05T09:17:18.913Z,72.46
2022-11-05T09:20:24.848Z,71.66
2022-11-05T09:23:30.280Z,71.54
2022-11-05T09:26:35.488Z,70.33
2022-11-05T09:29:41.062Z,68.70
2022-11-05T09:32:46.834Z,68.55
2022-11-05T09:35:52.884Z,67.22
2022-11-05T09:38:58.420Z,66.76
2022-11-05T09:42:05.704Z,66.87
2022-11-05T09:48:34.586Z,70.33
2022-11-05T09:51:42.160Z,68.60
2022-11-05T09:54:48.809Z,68.00
2022-11-05T09:57:58.585Z,68.37
2022-11-05T10:01:04.860Z,67.99
2022-11-05T10:04:11.355Z,68.93
2022-11-05T10:07:20.014Z,69.07
2022-11-05T10:10:40.774Z,69.34
2022-11-05T10:13:48.593Z,69.85
2022-11-05T10:16:57.460Z,70.14
2022-11-05T10:20:12.011Z,69.02
2022-11-05T10:23:20.331Z,68.68
2022-11-05T10:26:28.125Z,69.38
2022-11-05T10:29:36.177Z,69.52
2022-11-05T10:32:43.173Z,68.45
2022-11-05T10:35:51.310Z,68.85
2022-11-05T10:39:00.097Z,68.71
2022-11-05T10:42:20.614Z,68.54
2022-11-05T10:45:32.009Z,67.93
2022-11-05T10:48:45.003Z,68.93
2022-11-05T10:51:54.561Z,68.75
2022-11-05T10:55:04.175Z,68.20
2022-11-05T10:58:11.301Z,67.31
2022-11-05T11:01:16.683Z,67.94
2022-11-05T11:04:24.107Z,68.09
2022-11-05T11:07:29.709Z,67.44
2022-11-05T11:10:38.701Z,67.98
2022-11-05T11:13:59.674Z,67.16
2022-11-05T11:17:27.932Z,66.39
2022-11-05T11:20:34.995Z,66.51
2022-11-05T11:23:44.633Z,66.76
2022-11-05T11:26:50.221Z,66.22
2022-11-05T11:29:59.732Z,65.95
2022-11-05T11:33:10.243Z,65.13
2022-11-05T11:36:19.330Z,65.56
2022-11-05T11:39:26.593Z,65.43
2022-11-05T11:42:34.604Z,65.19
2022-11-05T11:45:46.739Z,65.60
2022-11-05T11:48:52.569Z,65.79
2022-11-05T11:52:01.050Z,66.17
2022-11-05T11:55:18.230Z,65.74
2022-11-05T11:58:24.247Z,64.83
2022-11-05T12:01:47.471Z,64.53
2022-11-05T12:05:00.640Z,64.21
2022-11-05T12:08:14.516Z,63.26
2022-11-05T12:11:28.185Z,62.76
2022-11-05T12:14:42.321Z,62.79
2022-11-05T12:17:54.478Z,63.56
2022-11-05T12:21:06.205Z,63.21
2022-11-05T12:24:20.946Z,63.61
2022-11-05T12:27:34.639Z,62.27
2022-11-05T12:30:47.860Z,61.96
2022-11-05T12:33:58.341Z,62.05
2022-11-05T12:37:11.708Z,61.40
2022-11-05T12:40:28.920Z,62.04
2022-11-05T12:43:40.168Z,62.15
2022-11-05T12:46:52.071Z,61.55
2022-11-05T12:50:11.672Z,61.06
2022-11-05T12:53:28.112Z,60.40
2022-11-05T12:56:37.053Z,60.19
2022-11-05T12:59:44.696Z,59.75
2022-11-05T13:02:52.353Z,62.56
2022-11-05T13:06:05.495Z,62.34
2022-11-05T13:09:14.430Z,60.26
2022-11-05T13:12:23.638Z,59.40
2022-11-05T13:15:32.916Z,62.18
2022-11-05T13:18:41.345Z,62.76
2022-11-05T13:21:53.213Z,61.95
2022-11-05T13:25:00.281Z,61.18
2022-11-05T13:28:11.762Z,59.97
2022-11-05T13:31:19.756Z,59.10
2022-11-05T13:34:25.185Z,61.66
2022-11-05T13:37:53.688Z,62.53
2022-11-05T13:41:06.710Z,60.65
2022-11-05T13:44:26.399Z,59.56
2022-11-05T13:47:38.215Z,61.19
2022-11-05T13:50:55.614Z,63.82
2022-11-05T13:54:23.435Z,61.18
2022-11-05T13:57:34.416Z,59.72
2022-11-05T14:00:44.320Z,60.55
2022-11-05T14:03:50.845Z,63.87
2022-11-05T14:07:06.106Z,61.32
2022-11-05T14:10:15.979Z,59.25
2022-11-05T14:13:24.787Z,59.50
2022-11-05T14:16:41.770Z,61.47
2022-11-05T14:20:08.027Z,62.15
2022-11-05T14:23:26.920Z,61.78
2022-11-05T14:26:33.180Z,58.99
2022-11-05T14:29:44.639Z,60.31
2022-11-05T14:32:50.816Z,62.49
2022-11-05T14:36:12.758Z,61.85
2022-11-05T14:39:22.469Z,59.00
2022-11-05T14:42:32.575Z,60.52
2022-11-05T14:45:39.181Z,62.68
2022-11-05T14:48:48.161Z,61.81
2022-11-05T14:51:54.733Z,58.21
2022-11-05T14:55:00.215Z,57.77
2022-11-05T14:58:07.694Z,60.88
2022-11-05T15:01:33.399Z,62.97
2022-11-05T15:04:42.842Z,61.33
2022-11-05T15:07:57.219Z,57.64
2022-11-05T15:11:10.220Z,58.42
2022-11-05T15:14:22.196Z,59.24
2022-11-05T15:17:30.930Z,64.15
2022-11-05T15:20:40.447Z,62.04
2022-11-05T15:23:47.218Z,59.11
2022-11-05T15:26:57.365Z,59.63
2022-11-05T15:30:06.503Z,61.77
2022-11-05T15:33:17.903Z,62.42
2022-11-05T15:36:27.355Z,60.64
2022-11-05T15:39:37.888Z,57.54
2022-11-05T15:42:45.556Z,60.15
2022-11-05T15:46:04.126Z,63.88
2022-11-05T15:49:12.962Z,62.01
2022-11-05T15:52:19.503Z,59.30
2022-11-05T15:55:26.329Z,59.43
2022-11-05T15:58:32.262Z,61.87
2022-11-05T16:01:38.646Z,64.75
2022-11-05T16:04:48.657Z,62.75
2022-11-05T16:07:54.183Z,60.39
2022-11-05T16:11:00.630Z,57.13
2022-11-05T16:14:18.281Z,58.42
2022-11-05T16:17:24.406Z,63.56
2022-11-05T16:20:32.292Z,63.89
2022-11-05T16:23:45.696Z,62.81
2022-11-05T16:27:03.466Z,61.72
2022-11-05T16:30:18.274Z,59.05
2022-11-05T16:33:26.450Z,56.49
2022-11-05T16:36:32.512Z,57.77
2022-11-05T16:39:38.237Z,59.15
2022-11-05T16:42:48.365Z,60.55
2022-11-05T16:45:55.873Z,61.25
2022-11-05T16:49:01.245Z,61.43
2022-11-05T16:52:09.895Z,61.71
2022-11-05T16:55:17.358Z,61.64
2022-11-05T16:58:24.191Z,61.89
2022-11-05T17:01:29.997Z,62.22
2022-11-05T17:04:38.444Z,64.57
2022-11-05T17:07:43.881Z,75.52
2022-11-05T17:10:49.359Z,73.58
2022-11-05T17:13:54.942Z,68.45
2022-11-05T17:17:02.493Z,64.74
2022-11-05T17:20:11.187Z,62.91
2022-11-05T17:23:17.712Z,61.92
2022-11-05T17:26:23.820Z,60.85
2022-11-05T17:29:29.248Z,59.82
2022-11-05T17:32:34.767Z,57.03
2022-11-05T17:35:40.661Z,58.51
2022-11-05T17:38:46.312Z,60.51
2022-11-05T17:41:52.337Z,61.74
2022-11-05T17:45:00.719Z,65.06
2022-11-05T17:48:06.483Z,69.83
2022-11-05T17:51:13.219Z,65.09
2022-11-05T17:54:18.669Z,61.39
2022-11-05T17:57:24.517Z,59.37
2022-11-05T18:00:30.052Z,57.15
2022-11-05T18:03:35.850Z,59.26
2022-11-05T18:06:42.100Z,61.03
2022-11-05T18:09:47.565Z,62.17
2022-11-05T18:12:54.427Z,68.57
2022-11-05T18:15:59.923Z,68.14
2022-11-05T18:19:05.810Z,64.47
2022-11-05T18:22:11.238Z,62.76
2022-11-05T18:25:16.735Z,61.25
2022-11-05T18:28:22.319Z,60.55
2022-11-05T18:31:27.922Z,59.34
2022-11-05T18:34:33.707Z,57.58
2022-11-05T18:37:40.063Z,59.98
2022-11-05T18:40:45.461Z,61.87
2022-11-05T18:43:50.771Z,66.84
2022-11-05T18:46:58.674Z,66.90
2022-11-05T18:50:18.463Z,63.92
2022-11-05T18:53:23.803Z,62.13
2022-11-05T18:56:29.159Z,61.22
2022-11-05T18:59:38.603Z,60.30
2022-11-05T19:02:44.968Z,58.80
2022-11-05T19:05:50.642Z,56.96
2022-11-05T19:08:56.250Z,59.33
2022-11-05T19:12:03.459Z,61.48
2022-11-05T19:15:10.089Z,65.75
2022-11-05T19:18:15.719Z,69.35
2022-11-05T19:21:22.631Z,67.81
2022-11-05T19:24:28.306Z,64.25
2022-11-05T19:27:36.791Z,62.31
2022-11-05T19:30:42.280Z,60.33
2022-11-05T19:33:49.967Z,57.41
2022-11-05T19:36:55.471Z,58.76
2022-11-05T19:40:03.341Z,61.04
2022-11-05T19:43:10.050Z,62.96
2022-11-05T19:46:16.581Z,70.20
2022-11-05T19:49:23.943Z,68.26
2022-11-05T19:52:29.372Z,64.86
2022-11-05T19:55:34.851Z,62.51
2022-11-05T19:58:40.226Z,60.92
2022-11-05T20:01:46.008Z,59.36
2022-11-05T20:04:51.757Z,57.23
2022-11-05T20:07:57.692Z,59.36
2022-11-05T20:11:03.373Z,61.51
2022-11-05T20:14:11.947Z,65.19
2022-11-05T20:17:18.017Z,68.92
2022-11-05T20:20:25.922Z,66.15
2022-11-05T20:23:33.668Z,64.14
2022-11-05T20:26:43.344Z,62.89
2022-11-05T20:29:56.145Z,62.59
2022-11-05T20:33:01.558Z,61.78
2022-11-05T20:36:08.087Z,60.10
2022-11-05T20:39:15.644Z,57.69
2022-11-05T20:42:22.424Z,58.18
2022-11-05T20:45:27.920Z,60.56
2022-11-05T20:48:34.313Z,62.15
2022-11-05T20:51:39.751Z,69.39
2022-11-05T20:54:45.389Z,69.22
2022-11-05T20:57:50.851Z,65.05
2022-11-05T21:01:00.977Z,62.47
2022-11-05T21:04:06.802Z,61.45
2022-11-05T21:07:12.595Z,59.87
2022-11-05T21:10:21.743Z,57.72
2022-11-05T21:13:27.463Z,59.28
2022-11-05T21:16:33.220Z,61.40
2022-11-05T21:19:39.066Z,65.35
2022-11-05T21:22:45.638Z,69.18
2022-11-05T21:25:51.620Z,66.29
2022-11-05T21:28:57.094Z,63.60
2022-11-05T21:32:04.516Z,61.62
2022-11-05T21:35:10.276Z,60.18
2022-11-05T21:38:16.639Z,58.62
2022-11-05T21:41:23.501Z,57.85
2022-11-05T21:44:29.083Z,60.32
2022-11-05T21:47:34.504Z,63.78
2022-11-05T21:50:58.520Z,68.96
2022-11-05T21:54:21.598Z,67.23
2022-11-05T21:57:44.610Z,64.95
2022-11-05T22:00:52.723Z,63.58
2022-11-05T22:04:03.770Z,62.11
2022-11-05T22:07:09.904Z,60.98
2022-11-05T22:10:16.590Z,60.39
2022-11-05T22:13:22.404Z,59.53
2022-11-05T22:16:27.822Z,57.62
2022-11-05T22:19:33.690Z,59.20
2022-11-05T22:22:40.384Z,60.59
2022-11-05T22:25:45.767Z,64.68
2022-11-05T22:28:53.820Z,71.02
2022-11-05T22:31:59.424Z,68.96
2022-11-05T22:35:05.146Z,65.36
2022-11-05T22:38:12.916Z,64.18
2022-11-05T22:41:22.518Z,62.13
2022-11-05T22:44:29.208Z,60.83
2022-11-05T22:47:34.481Z,59.90
2022-11-05T22:50:40.143Z,57.47
2022-11-05T22:53:45.956Z,58.63
2022-11-05T22:56:52.666Z,61.21
2022-11-05T23:00:00.517Z,64.96
2022-11-05T23:03:06.341Z,68.86
2022-11-05T23:06:36.203Z,66.00
2022-11-05T23:09:59.297Z,63.35
2022-11-05T23:13:05.246Z,61.59
2022-11-05T23:16:28.307Z,61.88
2022-11-05T23:19:52.706Z,61.94
2022-11-05T23:23:15.808Z,61.92
2022-11-05T23:26:39.074Z,60.96
2022-11-05T23:29:44.666Z,60.09
2022-11-05T23:32:50.447Z,58.35
2022-11-05T23:36:13.489Z,58.01
2022-11-05T23:39:19.091Z,60.94
2022-11-05T23:42:42.435Z,64.55
2022-11-05T23:46:05.382Z,69.08
2022-11-05T23:49:13.853Z,65.81
2022-11-05T23:52:19.553Z,63.78
2022-11-05T23:55:25.673Z,61.99
2022-11-05T23:58:31.146Z,61.63
